createdAt,value
2019-02-28T00:00:02.680Z,445.351
2019-02-28T00:00:09.033Z,445.351
2019-02-28T00:00:15.620Z,445.351
2019-02-28T00:00:22.176Z,436.652
2019-02-28T00:00:28.760Z,445.351
2019-02-28T00:00:41.575Z,436.652
2019-02-28T00:00:48.242Z,436.652
2019-02-28T00:00:54.844Z,436.652
2019-02-28T00:01:01.450Z,428.076
2019-02-28T00:01:07.995Z,428.076
2019-02-28T00:01:14.528Z,428.076
2019-02-28T00:01:21.104Z,428.076
2019-02-28T00:01:27.692Z,428.076
2019-02-28T00:01:34.230Z,428.076
2019-02-28T00:01:47.391Z,419.622
2019-02-28T00:01:53.732Z,428.076
2019-02-28T00:02:00.309Z,419.622
2019-02-28T00:02:07.036Z,419.622
2019-02-28T00:02:13.408Z,411.288
2019-02-28T00:02:22.927Z,411.288
2019-02-28T00:02:29.734Z,411.288
2019-02-28T00:02:36.293Z,403.073
2019-02-28T00:02:42.865Z,403.073
2019-02-28T00:02:49.450Z,403.073
2019-02-28T00:02:55.999Z,394.977
2019-02-28T00:03:02.574Z,394.977
2019-02-28T00:03:09.179Z,394.977
2019-02-28T00:03:15.702Z,386.997
2019-02-28T00:03:22.295Z,386.997
2019-02-28T00:03:33.674Z,386.997
2019-02-28T00:03:40.224Z,379.133
2019-02-28T00:03:46.814Z,379.133
2019-02-28T00:03:53.395Z,379.133
2019-02-28T00:03:59.915Z,379.133
2019-02-28T00:04:06.800Z,379.133
2019-02-28T00:04:13.057Z,379.133
2019-02-28T00:04:19.648Z,379.133
2019-02-28T00:04:26.222Z,379.133
2019-02-28T00:04:39.186Z,379.133
2019-02-28T00:04:45.747Z,371.383
2019-02-28T00:04:52.287Z,379.133
2019-02-28T00:04:58.880Z,371.383
2019-02-28T00:05:07.060Z,371.383
2019-02-28T00:05:13.605Z,363.747
2019-02-28T00:05:20.230Z,363.747
2019-02-28T00:05:26.840Z,363.747
2019-02-28T00:05:33.317Z,363.747
2019-02-28T00:05:39.864Z,363.747
2019-02-28T00:05:46.503Z,363.747
2019-02-28T00:05:52.973Z,356.224
2019-02-28T00:05:59.501Z,356.224
2019-02-28T00:06:06.285Z,356.224
2019-02-28T00:06:19.068Z,356.224
2019-02-28T00:06:25.592Z,356.224
2019-02-28T00:06:32.170Z,356.224
2019-02-28T00:06:38.709Z,356.224
2019-02-28T00:06:45.454Z,356.224
2019-02-28T00:06:51.868Z,356.224
2019-02-28T00:06:58.420Z,356.224
2019-02-28T00:07:05.031Z,356.224
2019-02-28T00:07:11.606Z,356.224
2019-02-28T00:07:18.939Z,356.224
2019-02-28T00:07:24.769Z,356.224
2019-02-28T00:07:31.322Z,348.812
2019-02-28T00:07:37.922Z,348.812
2019-02-28T00:07:44.485Z,348.812
2019-02-28T00:07:51.006Z,348.812
2019-02-28T00:07:57.572Z,356.224
2019-02-28T00:08:04.149Z,348.812
2019-02-28T00:08:10.726Z,348.812
2019-02-28T00:08:17.311Z,348.812
2019-02-28T00:08:23.868Z,348.812
2019-02-28T00:08:30.457Z,348.812
2019-02-28T00:08:37.037Z,348.812
2019-02-28T00:08:43.643Z,348.812
2019-02-28T00:08:54.542Z,341.509
2019-02-28T00:08:59.985Z,341.509
2019-02-28T00:09:06.521Z,341.509
2019-02-28T00:09:13.152Z,341.509
2019-02-28T00:09:19.711Z,341.509
2019-02-28T00:09:26.694Z,334.316
2019-02-28T00:09:32.870Z,334.316
2019-02-28T00:09:39.388Z,334.316
2019-02-28T00:09:45.976Z,334.316
2019-02-28T00:09:52.558Z,334.316
2019-02-28T00:09:59.479Z,334.316
2019-02-28T00:10:05.914Z,334.316
2019-02-28T00:10:12.167Z,327.232
2019-02-28T00:10:18.719Z,327.232
2019-02-28T00:10:30.829Z,327.232
2019-02-28T00:10:38.242Z,327.232
2019-02-28T00:10:44.829Z,327.232
2019-02-28T00:10:51.353Z,327.232
2019-02-28T00:11:05.141Z,327.232
2019-02-28T00:11:16.391Z,320.253
2019-02-28T00:11:22.252Z,320.253
2019-02-28T00:11:28.795Z,320.253
2019-02-28T00:11:40.354Z,320.253
2019-02-28T00:11:46.758Z,313.381
2019-02-28T00:11:53.298Z,313.381
2019-02-28T00:11:59.923Z,313.381
2019-02-28T00:12:14.546Z,313.381
2019-02-28T00:12:21.021Z,313.381
2019-02-28T00:12:27.571Z,306.614
2019-02-28T00:12:37.332Z,306.614
2019-02-28T00:12:48.853Z,306.614
2019-02-28T00:12:55.247Z,306.614
2019-02-28T00:13:02.819Z,306.614
2019-02-28T00:13:08.357Z,306.614
2019-02-28T00:13:14.894Z,306.614
2019-02-28T00:13:22.754Z,306.614
2019-02-28T00:13:29.691Z,306.614
2019-02-28T00:13:36.255Z,299.95
2019-02-28T00:13:42.810Z,299.95
2019-02-28T00:13:49.366Z,306.614
2019-02-28T00:14:02.346Z,299.95
2019-02-28T00:14:09.250Z,299.95
2019-02-28T00:14:15.475Z,299.95
2019-02-28T00:14:22.035Z,299.95
2019-02-28T00:14:28.711Z,299.95
2019-02-28T00:14:35.169Z,299.95
2019-02-28T00:14:41.722Z,299.95
2019-02-28T00:14:48.275Z,0.277
2019-02-28T00:14:55.260Z,299.95
2019-02-28T00:15:06.685Z,299.95
2019-02-28T00:15:12.815Z,299.95
2019-02-28T00:15:22.620Z,293.389
2019-02-28T00:15:30.595Z,293.389
2019-02-28T00:15:37.368Z,293.389
2019-02-28T00:15:47.121Z,293.389
2019-02-28T00:15:53.718Z,293.389
2019-02-28T00:16:04.160Z,293.389
2019-02-28T00:16:10.020Z,293.389
2019-02-28T00:16:16.586Z,293.389
2019-02-28T00:16:26.773Z,293.389
2019-02-28T00:16:36.590Z,293.389
2019-02-28T00:16:42.729Z,293.389
2019-02-28T00:16:49.715Z,293.389
2019-02-28T00:16:55.877Z,293.389
2019-02-28T00:17:03.049Z,293.389
2019-02-28T00:17:12.581Z,286.93
2019-02-28T00:17:18.825Z,286.93
2019-02-28T00:17:25.424Z,286.93
2019-02-28T00:17:31.989Z,286.93
2019-02-28T00:17:43.895Z,286.93
2019-02-28T00:17:49.914Z,286.93
2019-02-28T00:17:56.455Z,286.93
2019-02-28T00:18:03.997Z,286.93
2019-02-28T00:18:09.648Z,280.571
2019-02-28T00:18:16.988Z,280.571
2019-02-28T00:18:22.774Z,280.571
2019-02-28T00:18:29.299Z,280.571
2019-02-28T00:18:35.846Z,280.571
2019-02-28T00:18:42.422Z,280.571
2019-02-28T00:18:50.830Z,280.571
2019-02-28T00:18:57.144Z,280.571
2019-02-28T00:19:03.962Z,280.571
2019-02-28T00:19:10.339Z,280.571
2019-02-28T00:19:24.682Z,274.312
2019-02-28T00:19:31.517Z,274.312
2019-02-28T00:19:38.337Z,274.312
2019-02-28T00:19:44.672Z,274.312
2019-02-28T00:19:51.243Z,274.312
2019-02-28T00:19:59.143Z,274.312
2019-02-28T00:20:05.960Z,274.312
2019-02-28T00:20:12.517Z,274.312
2019-02-28T00:20:19.082Z,274.312
2019-02-28T00:20:25.679Z,274.312
2019-02-28T00:20:32.911Z,274.312
2019-02-28T00:20:38.785Z,274.312
2019-02-28T00:20:45.384Z,274.312
2019-02-28T00:20:51.963Z,268.151
2019-02-28T00:20:58.499Z,274.312
2019-02-28T00:21:07.339Z,268.151
2019-02-28T00:21:13.216Z,268.151
2019-02-28T00:21:19.875Z,268.151
2019-02-28T00:21:26.431Z,268.151
2019-02-28T00:21:33.176Z,268.151
2019-02-28T00:21:41.528Z,268.151
2019-02-28T00:21:47.734Z,268.151
2019-02-28T00:21:54.293Z,268.151
2019-02-28T00:22:00.846Z,268.151
2019-02-28T00:22:07.405Z,268.151
2019-02-28T00:22:15.772Z,268.151
2019-02-28T00:22:22.144Z,262.089
2019-02-28T00:22:28.740Z,268.151
2019-02-28T00:22:35.295Z,262.089
2019-02-28T00:22:41.833Z,262.089
2019-02-28T00:22:54.848Z,262.089
2019-02-28T00:23:05.257Z,262.089
2019-02-28T00:23:11.247Z,262.089
2019-02-28T00:23:22.961Z,262.089
2019-02-28T00:23:29.199Z,262.089
2019-02-28T00:23:35.733Z,262.089
2019-02-28T00:23:42.306Z,256.122
2019-02-28T00:23:48.903Z,262.089
2019-02-28T00:23:57.706Z,256.122
2019-02-28T00:24:04.109Z,256.122
2019-02-28T00:24:10.194Z,256.122
2019-02-28T00:24:16.722Z,256.122
2019-02-28T00:24:23.329Z,256.122
2019-02-28T00:24:31.056Z,262.089
2019-02-28T00:24:38.030Z,256.122
2019-02-28T00:24:44.573Z,256.122
2019-02-28T00:24:51.162Z,256.122
2019-02-28T00:24:57.728Z,256.122
2019-02-28T00:25:05.283Z,256.122
2019-02-28T00:25:10.869Z,256.122
2019-02-28T00:25:17.377Z,250.252
2019-02-28T00:25:23.950Z,256.122
2019-02-28T00:25:30.526Z,250.252
2019-02-28T00:25:38.833Z,250.252
2019-02-28T00:25:45.271Z,250.252
2019-02-28T00:25:51.786Z,250.252
2019-02-28T00:25:58.390Z,250.252
2019-02-28T00:26:05.534Z,250.252
2019-02-28T00:26:12.560Z,250.252
2019-02-28T00:26:18.089Z,250.252
2019-02-28T00:26:27.589Z,250.252
2019-02-28T00:26:34.427Z,250.252
2019-02-28T00:26:48.270Z,250.252
2019-02-28T00:26:55.598Z,250.252
2019-02-28T00:27:02.142Z,250.252
2019-02-28T00:27:08.704Z,250.252
2019-02-28T00:27:15.298Z,250.252
2019-02-28T00:27:28.272Z,250.252
2019-02-28T00:27:35.220Z,244.476
2019-02-28T00:27:41.407Z,250.252
2019-02-28T00:27:47.961Z,244.476
2019-02-28T00:27:54.548Z,244.476
2019-02-28T00:28:01.855Z,244.476
2019-02-28T00:28:07.731Z,244.476
2019-02-28T00:28:17.452Z,244.476
2019-02-28T00:28:26.790Z,244.476
2019-02-28T00:28:32.218Z,244.476
2019-02-28T00:28:38.779Z,244.476
2019-02-28T00:28:45.350Z,244.476
2019-02-28T00:28:51.897Z,244.476
2019-02-28T00:29:01.340Z,238.793
2019-02-28T00:29:09.764Z,238.793
2019-02-28T00:29:16.369Z,238.793
2019-02-28T00:29:22.979Z,238.793
2019-02-28T00:29:34.754Z,0.226
2019-02-28T00:29:40.860Z,238.793
2019-02-28T00:29:47.426Z,238.793
2019-02-28T00:29:54.000Z,238.793
2019-02-28T00:30:00.679Z,238.793
2019-02-28T00:30:07.320Z,238.793
2019-02-28T00:30:13.699Z,238.793
2019-02-28T00:30:20.283Z,238.793
2019-02-28T00:30:26.887Z,238.793
2019-02-28T00:30:33.456Z,238.793
2019-02-28T00:30:41.812Z,233.204
2019-02-28T00:30:48.185Z,233.204
2019-02-28T00:30:54.782Z,233.204
2019-02-28T00:31:01.353Z,233.204
2019-02-28T00:31:07.951Z,233.204
2019-02-28T00:31:15.643Z,233.204
2019-02-28T00:31:21.119Z,233.204
2019-02-28T00:31:27.658Z,233.204
2019-02-28T00:31:34.344Z,233.204
2019-02-28T00:31:40.865Z,238.793
2019-02-28T00:31:50.975Z,233.204
2019-02-28T00:31:57.691Z,233.204
2019-02-28T00:32:03.794Z,233.204
2019-02-28T00:32:13.537Z,233.204
2019-02-28T00:32:25.678Z,227.706
2019-02-28T00:32:31.442Z,227.706
2019-02-28T00:32:38.018Z,227.706
2019-02-28T00:32:44.863Z,227.706
2019-02-28T00:32:51.180Z,227.706
2019-02-28T00:33:00.130Z,233.204
2019-02-28T00:33:08.951Z,227.706
2019-02-28T00:33:15.644Z,227.706
2019-02-28T00:33:22.239Z,227.706
2019-02-28T00:33:32.041Z,227.706
2019-02-28T00:33:38.550Z,227.706
2019-02-28T00:33:48.900Z,227.706
2019-02-28T00:33:54.859Z,227.706
2019-02-28T00:34:05.749Z,227.706
2019-02-28T00:34:11.234Z,222.298
2019-02-28T00:34:17.787Z,222.298
2019-02-28T00:34:24.379Z,222.298
2019-02-28T00:34:30.956Z,222.298
2019-02-28T00:34:40.123Z,216.981
2019-02-28T00:34:45.662Z,216.981
2019-02-28T00:34:52.209Z,216.981
2019-02-28T00:34:59.169Z,216.981
2019-02-28T00:35:05.559Z,222.298
2019-02-28T00:35:14.306Z,222.298
2019-02-28T00:35:20.118Z,216.981
2019-02-28T00:35:26.726Z,222.298
2019-02-28T00:35:33.212Z,216.981
2019-02-28T00:35:39.810Z,216.981
2019-02-28T00:35:46.698Z,216.981
2019-02-28T00:35:52.949Z,216.981
2019-02-28T00:35:59.493Z,216.981
2019-02-28T00:36:06.087Z,216.981
2019-02-28T00:36:12.641Z,216.981
2019-02-28T00:36:20.066Z,216.981
2019-02-28T00:36:25.783Z,216.981
2019-02-28T00:36:32.634Z,216.981
2019-02-28T00:36:38.897Z,216.981
2019-02-28T00:36:45.426Z,216.981
2019-02-28T00:36:54.317Z,216.981
2019-02-28T00:37:00.129Z,216.981
2019-02-28T00:37:06.902Z,216.981
2019-02-28T00:37:13.297Z,216.981
2019-02-28T00:37:19.877Z,216.981
2019-02-28T00:37:26.790Z,216.981
2019-02-28T00:37:33.013Z,211.753
2019-02-28T00:37:39.602Z,211.753
2019-02-28T00:37:46.196Z,211.753
2019-02-28T00:37:53.113Z,216.981
2019-02-28T00:38:02.673Z,211.753
2019-02-28T00:38:09.121Z,211.753
2019-02-28T00:38:16.048Z,211.753
2019-02-28T00:38:22.231Z,211.753
2019-02-28T00:38:30.579Z,211.753
2019-02-28T00:38:41.163Z,211.753
2019-02-28T00:38:48.352Z,211.753
2019-02-28T00:38:54.904Z,0.2
2019-02-28T00:39:04.694Z,211.753
2019-02-28T00:39:11.164Z,211.753
2019-02-28T00:39:17.756Z,206.612
2019-02-28T00:39:24.285Z,206.612
2019-02-28T00:39:35.665Z,206.612
2019-02-28T00:39:42.224Z,206.612
2019-02-28T00:39:52.393Z,206.612
2019-02-28T00:39:58.586Z,206.612
2019-02-28T00:40:07.782Z,206.612
2019-02-28T00:40:13.316Z,206.612
2019-02-28T00:40:19.879Z,206.612
2019-02-28T00:40:26.457Z,206.612
2019-02-28T00:40:33.014Z,206.612
2019-02-28T00:40:39.580Z,206.612
2019-02-28T00:40:46.139Z,211.753
2019-02-28T00:40:52.673Z,206.612
2019-02-28T00:40:59.276Z,206.612
2019-02-28T00:41:10.355Z,206.612
2019-02-28T00:41:17.182Z,211.753
2019-02-28T00:41:23.789Z,206.612
2019-02-28T00:41:30.747Z,206.612
2019-02-28T00:41:36.928Z,206.612
2019-02-28T00:41:44.937Z,206.612
2019-02-28T00:41:51.642Z,206.612
2019-02-28T00:41:58.248Z,206.612
2019-02-28T00:42:04.752Z,206.612
2019-02-28T00:42:11.356Z,206.612
2019-02-28T00:42:18.900Z,206.612
2019-02-28T00:42:26.118Z,206.612
2019-02-28T00:42:35.849Z,206.612
2019-02-28T00:42:42.795Z,206.612
2019-02-28T00:42:51.642Z,206.612
2019-02-28T00:42:57.180Z,206.612
2019-02-28T00:43:04.260Z,206.612
2019-02-28T00:43:10.328Z,206.612
2019-02-28T00:43:16.874Z,206.612
2019-02-28T00:43:25.955Z,206.612
2019-02-28T00:43:31.734Z,206.612
2019-02-28T00:43:38.503Z,206.612
2019-02-28T00:43:44.756Z,206.612
2019-02-28T00:43:51.351Z,206.612
2019-02-28T00:43:58.172Z,206.612
2019-02-28T00:44:04.768Z,201.558
2019-02-28T00:44:11.063Z,201.558
2019-02-28T00:44:17.650Z,201.558
2019-02-28T00:44:24.138Z,201.558
2019-02-28T00:44:31.662Z,206.612
2019-02-28T00:44:37.434Z,201.558
2019-02-28T00:44:43.811Z,201.558
2019-02-28T00:44:50.366Z,201.558
2019-02-28T00:44:56.954Z,201.558
2019-02-28T00:45:04.048Z,201.558
2019-02-28T00:45:10.101Z,201.558
2019-02-28T00:45:16.627Z,201.558
2019-02-28T00:45:23.232Z,201.558
2019-02-28T00:45:29.784Z,201.558
2019-02-28T00:45:37.599Z,201.558
2019-02-28T00:45:44.547Z,196.591
2019-02-28T00:45:51.171Z,196.591
2019-02-28T00:45:57.687Z,196.591
2019-02-28T00:46:04.269Z,196.591
2019-02-28T00:46:17.205Z,196.591
2019-02-28T00:46:23.831Z,191.709
2019-02-28T00:46:30.356Z,196.591
2019-02-28T00:46:37.136Z,196.591
2019-02-28T00:46:45.625Z,196.591
2019-02-28T00:46:51.607Z,196.591
2019-02-28T00:46:58.160Z,196.591
2019-02-28T00:47:04.946Z,196.591
2019-02-28T00:47:11.338Z,196.591
2019-02-28T00:47:17.909Z,196.591
2019-02-28T00:47:28.705Z,196.591
2019-02-28T00:47:35.799Z,191.709
2019-02-28T00:47:42.377Z,191.709
2019-02-28T00:47:49.001Z,191.709
2019-02-28T00:47:55.563Z,191.709
2019-02-28T00:48:02.131Z,196.591
2019-02-28T00:48:08.677Z,191.709
2019-02-28T00:48:22.423Z,196.591
2019-02-28T00:48:28.262Z,196.591
2019-02-28T00:48:34.758Z,196.591
2019-02-28T00:48:41.339Z,196.591
2019-02-28T00:48:47.906Z,196.591
2019-02-28T00:48:54.475Z,191.709
2019-02-28T00:49:01.129Z,196.591
2019-02-28T00:49:07.579Z,196.591
2019-02-28T00:49:14.162Z,196.591
2019-02-28T00:49:20.743Z,191.709
2019-02-28T00:49:30.436Z,191.709
2019-02-28T00:49:37.057Z,191.709
2019-02-28T00:49:43.648Z,191.709
2019-02-28T00:49:50.596Z,191.709
2019-02-28T00:49:59.866Z,191.709
2019-02-28T00:50:06.565Z,196.591
2019-02-28T00:50:13.213Z,191.709
2019-02-28T00:50:19.699Z,191.709
2019-02-28T00:50:30.048Z,191.709
2019-02-28T00:50:36.368Z,191.709
2019-02-28T00:50:42.526Z,191.709
2019-02-28T00:50:49.122Z,186.911
2019-02-28T00:50:59.717Z,186.911
2019-02-28T00:51:05.469Z,186.911
2019-02-28T00:51:12.013Z,186.911
2019-02-28T00:51:18.572Z,186.911
2019-02-28T00:51:25.136Z,186.911
2019-02-28T00:51:31.712Z,186.911
2019-02-28T00:51:38.250Z,186.911
2019-02-28T00:51:45.184Z,186.911
2019-02-28T00:51:51.356Z,186.911
2019-02-28T00:51:57.898Z,186.911
2019-02-28T00:52:04.646Z,186.911
2019-02-28T00:52:11.045Z,186.911
2019-02-28T00:52:17.611Z,186.911
2019-02-28T00:52:24.167Z,186.911
2019-02-28T00:52:36.273Z,186.911
2019-02-28T00:52:42.154Z,186.911
2019-02-28T00:52:48.685Z,186.911
2019-02-28T00:52:55.253Z,186.911
2019-02-28T00:53:01.831Z,186.911
2019-02-28T00:53:08.398Z,186.911
2019-02-28T00:53:14.974Z,186.911
2019-02-28T00:53:21.801Z,182.196
2019-02-28T00:53:28.085Z,186.911
2019-02-28T00:53:38.344Z,182.196
2019-02-28T00:53:44.808Z,182.196
2019-02-28T00:53:50.972Z,182.196
2019-02-28T00:53:57.579Z,182.196
2019-02-28T00:54:10.030Z,182.196
2019-02-28T00:54:15.495Z,186.911
2019-02-28T00:54:22.081Z,182.196
2019-02-28T00:54:28.700Z,182.196
2019-02-28T00:54:35.275Z,182.196
2019-02-28T00:54:44.704Z,182.196
2019-02-28T00:54:51.609Z,182.196
2019-02-28T00:54:58.178Z,182.196
2019-02-28T00:55:04.759Z,182.196
2019-02-28T00:55:15.495Z,182.196
2019-02-28T00:55:21.148Z,182.196
2019-02-28T00:55:27.731Z,182.196
2019-02-28T00:55:34.304Z,186.911
2019-02-28T00:55:40.890Z,182.196
2019-02-28T00:55:47.472Z,182.196
2019-02-28T00:55:54.055Z,182.196
2019-02-28T00:56:00.583Z,182.196
2019-02-28T00:56:11.189Z,182.196
2019-02-28T00:56:18.523Z,182.196
2019-02-28T00:56:25.128Z,182.196
2019-02-28T00:56:31.754Z,182.196
2019-02-28T00:56:38.319Z,182.196
2019-02-28T00:56:52.787Z,182.196
2019-02-28T00:56:59.419Z,182.196
2019-02-28T00:57:05.984Z,182.196
2019-02-28T00:57:12.499Z,182.196
2019-02-28T00:57:19.116Z,182.196
2019-02-28T00:57:25.681Z,182.196
2019-02-28T00:57:32.197Z,177.564
2019-02-28T00:57:38.812Z,182.196
2019-02-28T00:57:45.418Z,177.564
2019-02-28T00:57:51.939Z,177.564
2019-02-28T00:57:58.517Z,177.564
2019-02-28T00:58:05.252Z,177.564
2019-02-28T00:58:11.619Z,177.564
2019-02-28T00:58:18.189Z,177.564
2019-02-28T00:58:30.015Z,177.564
2019-02-28T00:58:36.346Z,177.564
2019-02-28T00:58:42.692Z,182.196
2019-02-28T00:58:49.200Z,177.564
2019-02-28T00:59:01.365Z,182.196
2019-02-28T00:59:07.195Z,177.564
2019-02-28T00:59:13.768Z,177.564
2019-02-28T00:59:20.336Z,177.564
2019-02-28T00:59:26.921Z,177.564
2019-02-28T00:59:33.482Z,177.564
2019-02-28T00:59:40.084Z,177.564
2019-02-28T00:59:46.595Z,177.564
2019-02-28T00:59:53.186Z,177.564
2019-02-28T01:00:06.530Z,177.564
2019-02-28T01:00:12.961Z,177.564
2019-02-28T01:00:19.361Z,177.564
2019-02-28T01:00:25.924Z,177.564
2019-02-28T01:00:32.501Z,177.564
2019-02-28T01:00:39.043Z,177.564
2019-02-28T01:00:45.609Z,177.564
2019-02-28T01:00:55.410Z,177.564
2019-02-28T01:01:02.029Z,177.564
2019-02-28T01:01:12.850Z,177.564
2019-02-28T01:01:18.357Z,173.014
2019-02-28T01:01:24.936Z,173.014
2019-02-28T01:01:31.496Z,173.014
2019-02-28T01:01:47.150Z,173.014
2019-02-28T01:01:52.647Z,173.014
2019-02-28T01:01:59.198Z,173.014
2019-02-28T01:02:08.581Z,173.014
2019-02-28T01:02:18.918Z,173.014
2019-02-28T01:02:25.429Z,173.014
2019-02-28T01:02:31.875Z,173.014
2019-02-28T01:02:41.634Z,173.014
2019-02-28T01:02:53.880Z,173.014
2019-02-28T01:02:59.564Z,173.014
2019-02-28T01:03:06.104Z,173.014
2019-02-28T01:03:12.652Z,173.014
2019-02-28T01:03:19.264Z,173.014
2019-02-28T01:03:27.839Z,173.014
2019-02-28T01:03:33.931Z,173.014
2019-02-28T01:03:40.469Z,173.014
2019-02-28T01:03:47.028Z,173.014
2019-02-28T01:03:53.554Z,173.014
2019-02-28T01:04:00.121Z,173.014
2019-02-28T01:04:06.901Z,168.544
2019-02-28T01:04:13.237Z,168.544
2019-02-28T01:04:19.795Z,168.544
2019-02-28T01:04:29.820Z,168.544
2019-02-28T01:04:37.744Z,168.544
2019-02-28T01:04:44.297Z,168.544
2019-02-28T01:04:50.871Z,168.544
2019-02-28T01:04:57.564Z,168.544
2019-02-28T01:05:06.254Z,168.544
2019-02-28T01:05:12.141Z,168.544
2019-02-28T01:05:18.720Z,168.544
2019-02-28T01:05:25.321Z,168.544
2019-02-28T01:05:31.889Z,164.154
2019-02-28T01:05:38.497Z,164.154
2019-02-28T01:05:45.043Z,164.154
2019-02-28T01:05:51.611Z,164.154
2019-02-28T01:05:58.184Z,164.154
2019-02-28T01:06:10.827Z,164.154
2019-02-28T01:06:17.696Z,164.154
2019-02-28T01:06:24.236Z,164.154
2019-02-28T01:06:30.772Z,164.154
2019-02-28T01:06:37.358Z,164.154
2019-02-28T01:06:43.944Z,164.154
2019-02-28T01:06:50.535Z,164.154
2019-02-28T01:06:57.030Z,164.154
2019-02-28T01:07:06.833Z,164.154
2019-02-28T01:07:17.192Z,164.154
2019-02-28T01:07:23.174Z,164.154
2019-02-28T01:07:29.732Z,164.154
2019-02-28T01:07:36.297Z,164.154
2019-02-28T01:07:42.908Z,164.154
2019-02-28T01:07:49.477Z,164.154
2019-02-28T01:07:56.052Z,168.544
2019-02-28T01:08:02.603Z,164.154
2019-02-28T01:08:09.171Z,164.154
2019-02-28T01:08:15.764Z,164.154
2019-02-28T01:08:23.045Z,164.154
2019-02-28T01:08:28.917Z,164.154
2019-02-28T01:08:35.515Z,164.154
2019-02-28T01:08:42.050Z,164.154
2019-02-28T01:08:48.607Z,164.154
2019-02-28T01:08:56.945Z,164.154
2019-02-28T01:09:03.440Z,164.154
2019-02-28T01:09:09.899Z,164.154
2019-02-28T01:09:16.457Z,164.154
2019-02-28T01:09:23.059Z,164.154
2019-02-28T01:09:31.224Z,164.154
2019-02-28T01:09:37.730Z,159.844
2019-02-28T01:09:44.291Z,159.844
2019-02-28T01:09:50.852Z,159.844
2019-02-28T01:09:57.412Z,159.844
2019-02-28T01:10:05.454Z,159.844
2019-02-28T01:10:12.120Z,159.844
2019-02-28T01:10:18.877Z,159.844
2019-02-28T01:10:25.279Z,159.844
2019-02-28T01:10:31.904Z,159.844
2019-02-28T01:10:40.201Z,159.844
2019-02-28T01:10:46.641Z,159.844
2019-02-28T01:10:53.206Z,159.844
2019-02-28T01:10:59.780Z,159.844
2019-02-28T01:11:06.858Z,159.844
2019-02-28T01:11:14.094Z,159.844
2019-02-28T01:11:19.546Z,159.844
2019-02-28T01:11:26.115Z,159.844
2019-02-28T01:11:32.706Z,159.844
2019-02-28T01:11:39.301Z,159.844
2019-02-28T01:11:45.916Z,159.844
2019-02-28T01:11:52.461Z,159.844
2019-02-28T01:11:59.024Z,159.844
2019-02-28T01:12:05.598Z,159.844
2019-02-28T01:12:12.159Z,159.844
2019-02-28T01:12:25.114Z,159.844
2019-02-28T01:12:31.677Z,159.844
2019-02-28T01:12:38.233Z,155.611
2019-02-28T01:12:44.750Z,155.611
2019-02-28T01:13:00.977Z,155.611
2019-02-28T01:13:07.687Z,155.611
2019-02-28T01:13:14.045Z,155.611
2019-02-28T01:13:20.638Z,155.611
2019-02-28T01:13:28.378Z,159.844
2019-02-28T01:13:35.334Z,159.844
2019-02-28T01:13:41.905Z,159.844
2019-02-28T01:13:52.261Z,155.611
2019-02-28T01:14:02.634Z,159.844
2019-02-28T01:14:09.634Z,155.611
2019-02-28T01:14:16.155Z,159.844
2019-02-28T01:14:22.746Z,155.611
2019-02-28T01:14:29.336Z,155.611
2019-02-28T01:14:42.339Z,155.611
2019-02-28T01:14:48.886Z,155.611
2019-02-28T01:14:55.451Z,155.611
2019-02-28T01:15:02.524Z,159.844
2019-02-28T01:15:10.969Z,159.844
2019-02-28T01:15:20.551Z,155.611
2019-02-28T01:15:26.531Z,155.611
2019-02-28T01:15:33.090Z,159.844
2019-02-28T01:15:45.944Z,159.844
2019-02-28T01:15:52.617Z,159.844
2019-02-28T01:15:59.201Z,159.844
2019-02-28T01:16:05.810Z,159.844
2019-02-28T01:16:12.361Z,159.844
2019-02-28T01:16:20.343Z,159.844
2019-02-28T01:16:27.085Z,159.844
2019-02-28T01:16:33.692Z,159.844
2019-02-28T01:16:41.693Z,159.844
2019-02-28T01:16:53.813Z,159.844
2019-02-28T01:16:59.780Z,159.844
2019-02-28T01:17:06.561Z,159.844
2019-02-28T01:17:12.908Z,155.611
2019-02-28T01:17:19.473Z,155.611
2019-02-28T01:17:27.644Z,155.611
2019-02-28T01:17:34.166Z,155.611
2019-02-28T01:17:40.788Z,155.611
2019-02-28T01:17:47.394Z,155.611
2019-02-28T01:17:53.942Z,155.611
2019-02-28T01:18:02.101Z,151.455
2019-02-28T01:18:08.640Z,155.611
2019-02-28T01:18:15.250Z,151.455
2019-02-28T01:18:21.777Z,151.455
2019-02-28T01:18:35.587Z,151.455
2019-02-28T01:18:41.332Z,151.455
2019-02-28T01:18:51.762Z,151.455
2019-02-28T01:18:57.609Z,151.455
2019-02-28T01:19:10.423Z,151.455
2019-02-28T01:19:17.164Z,151.455
2019-02-28T01:19:23.744Z,151.455
2019-02-28T01:19:30.321Z,147.376
2019-02-28T01:19:36.900Z,151.455
2019-02-28T01:19:43.516Z,147.376
2019-02-28T01:19:50.074Z,151.455
2019-02-28T01:19:56.670Z,151.455
2019-02-28T01:20:03.242Z,151.455
2019-02-28T01:20:16.956Z,151.455
2019-02-28T01:20:22.796Z,151.455
2019-02-28T01:20:29.355Z,151.455
2019-02-28T01:20:35.953Z,151.455
2019-02-28T01:20:50.995Z,151.455
2019-02-28T01:20:57.099Z,151.455
2019-02-28T01:21:04.460Z,151.455
2019-02-28T01:21:10.228Z,151.455
2019-02-28T01:21:16.817Z,151.455
2019-02-28T01:21:24.765Z,147.376
2019-02-28T01:21:31.495Z,147.376
2019-02-28T01:21:38.059Z,151.455
2019-02-28T01:21:44.655Z,151.455
2019-02-28T01:21:51.198Z,151.455
2019-02-28T01:21:57.741Z,147.376
2019-02-28T01:22:04.303Z,151.455
2019-02-28T01:22:10.853Z,147.376
2019-02-28T01:22:17.431Z,147.376
2019-02-28T01:22:28.251Z,151.455
2019-02-28T01:22:33.806Z,151.455
2019-02-28T01:22:40.378Z,147.376
2019-02-28T01:22:46.978Z,151.455
2019-02-28T01:22:53.557Z,151.455
2019-02-28T01:23:00.101Z,151.455
2019-02-28T01:23:09.451Z,151.455
2019-02-28T01:23:16.439Z,151.455
2019-02-28T01:23:22.974Z,147.376
2019-02-28T01:23:30.415Z,147.376
2019-02-28T01:23:36.072Z,147.376
2019-02-28T01:23:42.786Z,147.376
2019-02-28T01:23:49.268Z,147.376
2019-02-28T01:23:55.828Z,147.376
2019-02-28T01:24:02.429Z,147.376
2019-02-28T01:24:08.938Z,147.376
2019-02-28T01:24:15.493Z,147.376
2019-02-28T01:24:22.076Z,147.376
2019-02-28T01:24:28.636Z,147.376
2019-02-28T01:24:41.633Z,147.376
2019-02-28T01:24:48.223Z,147.376
2019-02-28T01:24:54.769Z,147.376
2019-02-28T01:25:01.411Z,147.376
2019-02-28T01:25:07.928Z,147.376
2019-02-28T01:25:14.527Z,147.376
2019-02-28T01:25:21.107Z,147.376
2019-02-28T01:25:27.663Z,147.376
2019-02-28T01:25:34.283Z,147.376
2019-02-28T01:25:47.233Z,147.376
2019-02-28T01:25:53.836Z,147.376
2019-02-28T01:26:00.397Z,147.376
2019-02-28T01:26:06.961Z,147.376
2019-02-28T01:26:13.533Z,147.376
2019-02-28T01:26:20.121Z,143.373
2019-02-28T01:26:26.729Z,143.373
2019-02-28T01:26:33.241Z,143.373
2019-02-28T01:26:39.849Z,147.376
2019-02-28T01:26:47.667Z,147.376
2019-02-28T01:26:54.605Z,147.376
2019-02-28T01:27:01.170Z,147.376
2019-02-28T01:27:07.713Z,147.376
2019-02-28T01:27:22.023Z,147.376
2019-02-28T01:27:28.904Z,147.376
2019-02-28T01:27:35.483Z,147.376
2019-02-28T01:27:42.012Z,147.376
2019-02-28T01:27:48.598Z,147.376
2019-02-28T01:27:55.131Z,147.376